createdAt,value
2023-05-02T00:02:32.859Z,1.35
2023-05-02T00:08:14.140Z,2.41
2023-05-02T00:13:38.103Z,1.14
2023-05-02T00:19:26.523Z,1.62
2023-05-02T00:24:50.594Z,1.52
2023-05-02T00:30:15.461Z,1.74
2023-05-02T00:35:38.579Z,1.49
2023-05-02T00:41:02.880Z,1.92
2023-05-02T00:46:28.162Z,1.58
2023-05-02T00:51:52.563Z,1.17
2023-05-02T00:57:13.334Z,1.92
2023-05-02T01:02:36.509Z,2.01
2023-05-02T01:08:17.843Z,1.50
2023-05-02T01:14:06.165Z,1.96
2023-05-02T01:19:28.434Z,1.54
2023-05-02T01:24:50.819Z,1.51
2023-05-02T01:30:16.829Z,1.63
2023-05-02T01:35:41.122Z,1.74
2023-05-02T01:41:04.251Z,1.71
2023-05-02T01:46:28.398Z,1.61
2023-05-02T01:51:53.385Z,2.51
2023-05-02T01:57:18.681Z,2.43
2023-05-02T02:02:42.633Z,1.72
2023-05-02T02:08:01.975Z,1.50
2023-05-02T02:13:26.377Z,1.83
2023-05-02T02:19:05.242Z,2.45
2023-05-02T02:24:28.519Z,2.18
2023-05-02T02:29:52.385Z,2.67
2023-05-02T02:35:16.353Z,1.94
2023-05-02T02:40:41.121Z,2.49
2023-05-02T02:46:04.822Z,1.80
2023-05-02T02:51:30.512Z,3.17
2023-05-02T02:56:55.908Z,2.19
2023-05-02T03:02:20.515Z,2.85
2023-05-02T03:07:45.739Z,1.62
2023-05-02T03:13:09.414Z,1.57
2023-05-02T03:18:50.924Z,2.74
2023-05-02T03:24:09.757Z,2.03
2023-05-02T03:29:31.636Z,1.44
2023-05-02T03:34:54.976Z,1.85
2023-05-02T03:40:19.954Z,2.17
2023-05-02T03:45:47.048Z,3.04
2023-05-02T03:51:11.007Z,1.87
2023-05-02T03:56:47.150Z,1.87
2023-05-02T04:02:10.763Z,2.86
2023-05-02T04:07:35.958Z,1.70
2023-05-02T04:12:59.045Z,1.35
2023-05-02T04:18:25.497Z,1.35
2023-05-02T04:23:47.867Z,2.21
2023-05-02T04:29:11.719Z,2.19
2023-05-02T04:34:36.157Z,1.87
2023-05-02T04:39:58.706Z,2.19
2023-05-02T04:45:22.953Z,1.65
2023-05-02T04:51:10.817Z,3.09
2023-05-02T04:56:32.968Z,2.58
2023-05-02T05:01:54.605Z,6.33
2023-05-02T05:07:19.047Z,4.01
2023-05-02T05:12:41.922Z,3.05
2023-05-02T05:18:07.045Z,3.04
2023-05-02T05:23:30.597Z,4.37
2023-05-02T05:28:55.160Z,3.39
2023-05-02T05:34:37.156Z,4.51
2023-05-02T05:40:20.778Z,6.09
2023-05-02T05:45:44.782Z,4.21
2023-05-02T05:51:10.866Z,7.53
2023-05-02T05:56:33.509Z,8.33
2023-05-02T06:02:20.406Z,9.28
2023-05-02T06:07:43.448Z,8.15
2023-05-02T06:13:07.338Z,8.68
2023-05-02T06:18:28.490Z,8.95
2023-05-02T06:23:53.636Z,10.35
2023-05-02T06:29:15.787Z,10.18
2023-05-02T06:34:38.728Z,11.02
2023-05-02T06:40:16.555Z,13.83
2023-05-02T06:45:39.998Z,11.37
2023-05-02T06:51:04.567Z,12.81
2023-05-02T06:56:27.604Z,12.04
2023-05-02T07:01:52.401Z,14.26
2023-05-02T07:07:17.586Z,14.94
2023-05-02T07:12:42.461Z,16.74
2023-05-02T07:18:07.811Z,14.17
2023-05-02T07:23:50.099Z,16.43
2023-05-02T07:29:34.490Z,16.46
2023-05-02T07:35:17.946Z,16.46
2023-05-02T07:40:39.134Z,15.42
2023-05-02T07:46:04.605Z,15.31
2023-05-02T07:51:27.704Z,14.71
2023-05-02T07:56:50.865Z,15.91
2023-05-02T08:02:14.417Z,16.85
2023-05-02T08:07:39.814Z,16.22
2023-05-02T08:13:05.614Z,14.19
2023-05-02T08:18:29.809Z,12.30
2023-05-02T08:24:24.905Z,14.80
2023-05-02T08:29:59.407Z,11.10
2023-05-02T08:35:23.543Z,11.50
2023-05-02T08:40:48.351Z,13.13
2023-05-02T08:46:11.299Z,12.05
2023-05-02T08:51:37.509Z,10.17
2023-05-02T08:56:59.667Z,13.33
2023-05-02T09:02:19.794Z,12.83
2023-05-02T09:07:54.603Z,11.94
2023-05-02T09:13:19.703Z,16.17
2023-05-02T09:19:12.768Z,11.32
2023-05-02T09:24:42.904Z,8.03
2023-05-02T09:30:10.289Z,5.98
2023-05-02T09:35:42.060Z,10.59
2023-05-02T09:41:11.410Z,9.37
2023-05-02T09:46:35.585Z,8.00
2023-05-02T09:52:01.678Z,7.98
2023-05-02T09:57:25.842Z,9.65
2023-05-02T10:02:58.630Z,9.21
2023-05-02T10:08:23.134Z,7.63
2023-05-02T10:13:46.049Z,9.24
2023-05-02T10:19:10.736Z,7.01
2023-05-02T10:24:35.020Z,5.85
2023-05-02T10:30:00.184Z,7.30
2023-05-02T10:35:27.905Z,6.70
2023-05-02T10:40:49.741Z,7.03
2023-05-02T10:46:15.000Z,8.64
2023-05-02T10:51:51.633Z,5.67
2023-05-02T10:57:16.854Z,7.94
2023-05-02T11:03:04.993Z,6.79
2023-05-02T11:08:25.897Z,4.89
2023-05-02T11:13:54.133Z,6.50
2023-05-02T11:19:19.464Z,4.22
2023-05-02T11:24:41.369Z,6.29
2023-05-02T11:30:01.333Z,6.01
2023-05-02T11:35:26.240Z,3.95
2023-05-02T11:40:50.363Z,4.09
2023-05-02T11:46:17.211Z,5.93
2023-05-02T11:51:42.112Z,4.33
2023-05-02T11:57:07.539Z,5.30
2023-05-02T12:02:32.664Z,5.11
2023-05-02T12:07:57.738Z,4.51
2023-05-02T12:13:23.372Z,3.69
2023-05-02T12:18:46.732Z,3.85
2023-05-02T12:24:09.038Z,10.34
2023-05-02T12:29:33.110Z,4.87
2023-05-02T12:35:00.247Z,4.16
2023-05-02T12:40:22.960Z,4.34
2023-05-02T12:45:44.041Z,2.69
2023-05-02T12:51:08.066Z,3.56
2023-05-02T12:56:35.880Z,3.18
2023-05-02T13:02:01.192Z,2.45
2023-05-02T13:07:24.009Z,2.63
2023-05-02T13:13:15.893Z,2.41
2023-05-02T13:18:39.317Z,3.12
2023-05-02T13:24:04.277Z,1.62
2023-05-02T13:29:28.448Z,2.43
2023-05-02T13:34:53.360Z,2.07
2023-05-02T13:40:18.614Z,1.99
2023-05-02T13:45:43.572Z,4.29
2023-05-02T13:51:08.744Z,2.61
2023-05-02T13:56:33.104Z,3.60
2023-05-02T14:01:58.301Z,2.32
2023-05-02T14:07:46.209Z,3.15
2023-05-02T14:13:09.635Z,3.19
2023-05-02T14:18:34.793Z,2.49
2023-05-02T14:23:59.617Z,2.85
2023-05-02T14:29:23.854Z,1.72
2023-05-02T14:34:48.141Z,1.31
2023-05-02T14:40:11.374Z,1.25
2023-05-02T14:45:31.099Z,1.48
2023-05-02T14:50:55.856Z,1.58
2023-05-02T14:56:23.115Z,2.05
2023-05-02T15:01:48.545Z,2.52
2023-05-02T15:07:13.313Z,2.24
2023-05-02T15:12:37.768Z,2.27
2023-05-02T15:18:03.311Z,2.74
2023-05-02T15:23:26.700Z,1.81
2023-05-02T15:28:51.735Z,3.00
2023-05-02T15:34:15.106Z,2.62
2023-05-02T15:39:36.349Z,3.14
2023-05-02T15:45:01.222Z,2.67
2023-05-02T15:50:46.061Z,3.45
2023-05-02T15:56:08.137Z,3.69
2023-05-02T16:01:32.322Z,2.31
2023-05-02T16:06:57.501Z,2.78
2023-05-02T16:12:28.094Z,2.50
2023-05-02T16:17:52.685Z,4.58
2023-05-02T16:23:17.720Z,2.49
2023-05-02T16:28:41.830Z,3.86
2023-05-02T16:34:06.585Z,2.56
2023-05-02T16:39:29.807Z,2.30
2023-05-02T16:44:54.497Z,6.85
2023-05-02T16:50:16.377Z,2.00
2023-05-02T16:55:35.768Z,3.59
2023-05-02T17:00:57.877Z,2.75
2023-05-02T17:06:22.511Z,2.83
2023-05-02T17:11:47.391Z,3.63
2023-05-02T17:17:12.002Z,2.29
2023-05-02T17:22:36.813Z,3.05
2023-05-02T17:28:00.984Z,2.68
2023-05-02T17:33:25.282Z,1.27
2023-05-02T17:38:47.385Z,1.75
2023-05-02T17:44:07.672Z,1.22
2023-05-02T17:49:28.013Z,2.65
2023-05-02T17:54:59.993Z,1.80
2023-05-02T18:00:24.019Z,2.96
2023-05-02T18:05:46.422Z,3.26
2023-05-02T18:11:09.697Z,1.74
2023-05-02T18:16:32.977Z,2.73
2023-05-02T18:21:57.464Z,2.25
2023-05-02T18:27:22.353Z,1.93
2023-05-02T18:33:06.589Z,3.77
2023-05-02T18:38:30.079Z,2.05
2023-05-02T18:43:52.930Z,2.07
2023-05-02T18:49:28.613Z,2.00
2023-05-02T18:54:52.560Z,1.46
2023-05-02T19:00:14.682Z,2.24
2023-05-02T19:05:39.745Z,1.56
2023-05-02T19:11:04.191Z,1.98
2023-05-02T19:16:55.652Z,1.70
2023-05-02T19:22:37.300Z,3.09
2023-05-02T19:27:59.334Z,2.80
2023-05-02T19:33:22.698Z,2.01
2023-05-02T19:39:00.521Z,2.64
2023-05-02T19:44:23.300Z,1.70
2023-05-02T19:49:42.918Z,2.20
2023-05-02T19:55:05.573Z,2.00
2023-05-02T20:00:27.825Z,2.12
2023-05-02T20:05:48.615Z,1.73
2023-05-02T20:11:09.573Z,2.15
2023-05-02T20:16:30.562Z,1.26
2023-05-02T20:21:50.927Z,1.35
2023-05-02T20:27:14.388Z,1.94
2023-05-02T20:32:32.225Z,1.85
2023-05-02T20:37:53.553Z,1.36
2023-05-02T20:43:13.555Z,1.37
2023-05-02T20:48:58.006Z,3.81
2023-05-02T20:54:17.156Z,2.19
2023-05-02T20:59:39.411Z,1.91
2023-05-02T21:05:03.109Z,2.25
2023-05-02T21:10:28.719Z,1.93
2023-05-02T21:16:33.477Z,3.33
2023-05-02T21:21:56.172Z,2.02
2023-05-02T21:27:20.763Z,3.52
2023-05-02T21:32:45.794Z,1.91
2023-05-02T21:38:10.581Z,2.32
2023-05-02T21:43:34.413Z,1.25
2023-05-02T21:48:59.044Z,1.28
2023-05-02T21:54:21.209Z,1.75
2023-05-02T21:59:44.818Z,3.55
2023-05-02T22:05:09.421Z,1.99
2023-05-02T22:10:37.903Z,2.01
2023-05-02T22:16:02.433Z,5.69
2023-05-02T22:21:27.718Z,1.75
2023-05-02T22:26:52.921Z,2.35
2023-05-02T22:32:18.180Z,2.54
2023-05-02T22:37:42.356Z,1.68
2023-05-02T22:43:07.728Z,1.79
2023-05-02T22:48:32.100Z,3.73
2023-05-02T22:53:56.566Z,2.32
2023-05-02T22:59:21.584Z,1.66
2023-05-02T23:04:45.527Z,2.97
2023-05-02T23:10:10.191Z,1.49
2023-05-02T23:15:33.913Z,1.37
2023-05-02T23:20:57.498Z,2.67
2023-05-02T23:26:15.040Z,3.84
2023-05-02T23:31:38.695Z,5.12
2023-05-02T23:37:02.596Z,2.00
2023-05-02T23:42:27.283Z,2.05
2023-05-02T23:47:48.755Z,2.57
2023-05-02T23:53:16.053Z,3.08
2023-05-02T23:58:36.956Z,1.57
